Time;durP1;ratioP1;P1;durP2;ratioP2;P2;SDS_P1;SDS_P2;PMS_P1;PMS_P2;Temp;Humidity;BMP_temperature;BMP_pressure;BME280_temperature;BME280_humidity;BME280_pressure;Samples;Min_cycle;Max_cycle;Signal;HPM_P1;HPM_P2
2020/12/20 00:00:59;;;;;;;68.30;34.67;;;5.60;99.90;;;;;;5026098;28;20052;-77
2020/12/20 00:03:25;;;;;;;78.85;33.70;;;5.50;99.90;;;;;;5030676;28;20029;-78
2020/12/20 00:05:52;;;;;;;63.65;33.38;;;5.40;99.90;;;;;;5021189;28;20506;-77
2020/12/20 00:08:17;;;;;;;66.20;34.42;;;5.40;99.90;;;;;;4993712;28;20033;-77
2020/12/20 00:10:43;;;;;;;66.03;34.65;;;5.40;99.90;;;;;;5014201;28;20069;-78
2020/12/20 00:13:09;;;;;;;67.22;32.08;;;5.40;99.90;;;;;;5009623;28;20028;-80
2020/12/20 00:15:35;;;;;;;64.78;30.67;;;5.30;99.90;;;;;;5014321;28;20080;-79
2020/12/20 00:18:04;;;;;;;74.25;32.20;;;5.20;99.90;;;;;;5014777;28;20026;-78
2020/12/20 00:20:33;;;;;;;67.32;36.20;;;5.20;99.90;;;;;;5019575;28;20096;-75
2020/12/20 00:22:58;;;;;;;74.82;35.97;;;5.20;99.90;;;;;;5032939;28;20112;-77
2020/12/20 00:25:24;;;;;;;70.40;33.35;;;5.10;99.90;;;;;;5033838;28;20108;-78
2020/12/20 00:27:50;;;;;;;68.55;32.45;;;5.10;99.90;;;;;;5030787;28;20030;-78
2020/12/20 00:30:16;;;;;;;64.68;33.92;;;5.10;99.90;;;;;;5019824;28;20044;-78
2020/12/20 00:32:42;;;;;;;70.53;35.17;;;5.20;99.90;;;;;;5035153;28;20488;-79
2020/12/20 00:35:28;;;;;;;71.95;37.15;;;5.30;99.90;;;;;;5017285;28;20041;-79
2020/12/20 00:37:57;;;;;;;71.47;34.65;;;5.30;99.90;;;;;;5014429;28;20041;-77
2020/12/20 00:40:23;;;;;;;74.10;36.75;;;5.30;99.90;;;;;;5015565;28;20021;-78
2020/12/20 00:42:49;;;;;;;78.70;34.53;;;5.40;99.90;;;;;;5030103;28;20523;-79
2020/12/20 00:45:15;;;;;;;68.95;36.20;;;5.40;99.90;;;;;;5030874;28;20036;-78
2020/12/20 00:47:41;;;;;;;77.25;34.08;;;5.40;99.90;;;;;;5015196;28;20496;-80
2020/12/20 00:50:07;;;;;;;87.63;34.70;;;5.50;99.90;;;;;;5013610;28;20084;-81
2020/12/20 00:52:38;;;;;;;66.40;36.03;;;5.40;99.90;;;;;;5010643;28;20021;-79
2020/12/20 00:55:06;;;;;;;72.95;31.52;;;5.40;99.90;;;;;;5015207;28;20069;-78
2020/12/20 00:57:31;;;;;;;71.32;32.05;;;5.40;99.90;;;;;;5031683;28;20017;-78
2020/12/20 00:59:58;;;;;;;68.53;32.47;;;5.40;99.90;;;;;;5007830;28;20501;-79
2020/12/20 01:02:24;;;;;;;78.18;34.55;;;5.40;99.90;;;;;;5013867;28;20053;-82
2020/12/20 01:04:50;;;;;;;74.93;32.55;;;5.40;99.90;;;;;;5028756;28;20037;-79
2020/12/20 01:07:16;;;;;;;73.57;35.75;;;5.50;99.90;;;;;;5018658;28;20472;-80
2020/12/20 01:09:45;;;;;;;70.28;32.33;;;5.40;99.90;;;;;;5037111;28;20034;-82
2020/12/20 01:12:11;;;;;;;81.78;34.03;;;5.30;99.90;;;;;;5020360;28;20112;-78
2020/12/20 01:14:37;;;;;;;62.45;34.00;;;5.30;99.90;;;;;;5039680;28;20521;-81
2020/12/20 01:17:03;;;;;;;71.78;33.88;;;5.10;99.90;;;;;;5023809;28;20030;-80
2020/12/20 01:19:29;;;;;;;67.72;32.30;;;5.10;99.90;;;;;;5042186;28;20017;-82
2020/12/20 01:21:55;;;;;;;68.68;32.42;;;5.10;99.90;;;;;;5023076;28;20088;-81
2020/12/20 01:24:20;;;;;;;51.75;27.92;;;5.10;99.90;;;;;;5021998;28;20034;-80
2020/12/20 01:26:46;;;;;;;61.55;29.25;;;5.10;99.90;;;;;;5017142;28;20045;-81
2020/12/20 01:29:13;;;;;;;68.40;30.73;;;5.20;99.90;;;;;;5020433;28;20494;-79
2020/12/20 01:31:39;;;;;;;69.82;30.08;;;5.20;99.90;;;;;;5037642;28;20021;-79
2020/12/20 01:34:05;;;;;;;71.20;30.20;;;5.20;99.90;;;;;;5037997;28;20052;-79
2020/12/20 01:36:32;;;;;;;63.28;31.20;;;5.20;99.90;;;;;;5031942;28;20052;-81
2020/12/20 01:38:58;;;;;;;60.95;30.30;;;5.20;99.90;;;;;;5015975;28;20049;-78
2020/12/20 01:41:24;;;;;;;68.45;31.25;;;5.20;99.90;;;;;;5035293;28;20475;-79
2020/12/20 01:43:53;;;;;;;59.95;28.13;;;5.20;99.90;;;;;;5026395;28;20087;-78
2020/12/20 01:46:21;;;;;;;69.30;30.23;;;5.00;99.90;;;;;;5032439;28;20578;-79
2020/12/20 01:48:48;;;;;;;60.20;28.45;;;5.00;99.90;;;;;;5011361;28;20033;-77
2020/12/20 01:51:15;;;;;;;57.10;28.25;;;4.90;99.90;;;;;;5000139;28;20113;-79
2020/12/20 01:53:41;;;;;;;56.38;28.70;;;4.90;99.90;;;;;;5034944;28;20029;-81
2020/12/20 01:56:08;;;;;;;59.10;29.90;;;4.90;99.90;;;;;;5018797;28;20148;-79
2020/12/20 01:58:37;;;;;;;60.20;29.80;;;4.90;99.90;;;;;;5019718;28;20037;-79
2020/12/20 02:01:05;;;;;;;65.65;30.40;;;4.90;99.90;;;;;;5032565;28;20055;-76
2020/12/20 02:03:32;;;;;;;58.72;30.10;;;4.80;99.90;;;;;;5035610;28;20041;-78
2020/12/20 02:05:58;;;;;;;62.05;31.13;;;4.80;99.90;;;;;;5039251;28;20041;-78
2020/12/20 02:08:27;;;;;;;58.15;28.33;;;4.90;99.90;;;;;;5018214;28;20133;-76
2020/12/20 02:11:09;;;;;;;53.20;28.02;;;4.70;99.90;;;;;;5036705;28;20069;-82
2020/12/20 02:13:34;;;;;;;46.58;25.27;;;4.70;99.90;;;;;;5023957;28;20053;-76
2020/12/20 02:16:02;;;;;;;59.28;29.40;;;4.70;99.90;;;;;;5024929;28;20049;-78
2020/12/20 02:18:33;;;;;;;61.22;29.73;;;4.80;99.90;;;;;;5027341;28;20021;-78
2020/12/20 02:20:59;;;;;;;49.55;25.40;;;4.80;99.90;;;;;;5022227;28;20056;-76
2020/12/20 02:23:38;;;;;;;57.63;26.13;;;4.80;99.90;;;;;;5020333;28;20057;-79
2020/12/20 02:26:04;;;;;;;62.75;27.30;;;4.70;99.90;;;;;;5022127;28;20034;-77
2020/12/20 02:28:29;;;;;;;58.67;30.23;;;4.70;99.90;;;;;;5021501;28;20412;-79
2020/12/20 02:30:55;;;;;;;72.50;31.08;;;4.80;99.90;;;;;;5015239;28;20052;-78
2020/12/20 02:33:21;;;;;;;60.25;28.55;;;4.70;99.90;;;;;;5031042;28;20097;-81
2020/12/20 02:35:47;;;;;;;58.10;26.60;;;4.70;99.90;;;;;;5036687;28;20057;-80
2020/12/20 02:38:12;;;;;;;58.00;25.60;;;4.70;99.90;;;;;;5017037;28;20025;-79
2020/12/20 02:40:40;;;;;;;56.70;28.10;;;4.70;99.90;;;;;;5037468;28;20025;-79
2020/12/20 02:43:06;;;;;;;51.38;26.60;;;4.80;99.90;;;;;;5032269;28;20083;-76
2020/12/20 02:45:31;;;;;;;49.05;27.27;;;4.90;99.90;;;;;;5011446;28;20045;-77
2020/12/20 02:47:57;;;;;;;46.40;25.42;;;4.90;99.90;;;;;;5035712;28;20752;-75
2020/12/20 02:50:23;;;;;;;45.55;23.70;;;4.90;99.90;;;;;;5017015;28;20489;-76
2020/12/20 02:52:48;;;;;;;47.92;25.58;;;4.90;99.90;;;;;;5036177;28;20147;-77
2020/12/20 02:55:14;;;;;;;46.85;25.20;;;5.00;99.90;;;;;;5038208;28;20379;-76
2020/12/20 02:57:40;;;;;;;58.63;28.15;;;4.80;99.90;;;;;;5038657;28;20068;-78
2020/12/20 03:00:06;;;;;;;50.33;25.50;;;4.70;99.90;;;;;;5034919;28;20508;-77
2020/12/20 03:02:31;;;;;;;50.17;26.35;;;4.70;99.90;;;;;;5037952;28;20029;-76
2020/12/20 03:04:57;;;;;;;54.60;26.98;;;4.70;99.90;;;;;;5038389;28;20041;-76
2020/12/20 03:07:24;;;;;;;50.40;25.55;;;4.70;99.90;;;;;;5035109;28;20030;-78
2020/12/20 03:09:50;;;;;;;47.95;26.25;;;4.70;99.90;;;;;;5015526;28;20382;-76
2020/12/20 03:12:22;;;;;;;49.45;26.20;;;4.70;99.90;;;;;;5034631;28;20017;-78
2020/12/20 03:14:48;;;;;;;54.25;28.55;;;4.60;99.90;;;;;;5021089;28;20026;-78
2020/12/20 03:17:20;;;;;;;48.15;24.33;;;4.60;99.90;;;;;;5009625;28;20041;-76
2020/12/20 03:19:46;;;;;;;49.42;26.15;;;4.70;99.90;;;;;;5008566;28;20097;-75
2020/12/20 03:22:12;;;;;;;53.03;27.63;;;4.70;99.90;;;;;;5038756;28;20018;-76
2020/12/20 03:24:37;;;;;;;52.33;26.40;;;4.80;99.90;;;;;;5032209;28;20480;-77
2020/12/20 03:27:03;;;;;;;49.15;25.85;;;4.90;99.90;;;;;;5029128;28;20021;-77
2020/12/20 03:29:29;;;;;;;50.38;25.48;;;4.90;99.90;;;;;;4984171;28;20028;-78
2020/12/20 03:31:55;;;;;;;44.22;26.85;;;5.00;99.90;;;;;;5011291;28;20484;-76
2020/12/20 03:34:20;;;;;;;54.10;26.00;;;4.90;99.90;;;;;;5036013;28;20057;-77
2020/12/20 03:36:46;;;;;;;56.28;28.42;;;4.80;99.90;;;;;;5035393;28;20038;-78
2020/12/20 03:39:12;;;;;;;53.92;28.67;;;4.70;99.90;;;;;;5035476;28;20100;-78
2020/12/20 03:41:37;;;;;;;56.75;29.02;;;4.70;99.90;;;;;;5036274;28;20033;-77
2020/12/20 03:44:03;;;;;;;70.47;31.50;;;4.70;99.90;;;;;;5033263;28;20022;-77
2020/12/20 03:46:29;;;;;;;55.83;29.30;;;4.70;99.90;;;;;;5033734;28;20060;-77
2020/12/20 03:48:54;;;;;;;56.97;29.77;;;4.70;99.90;;;;;;5002401;28;20429;-77
2020/12/20 03:51:20;;;;;;;61.17;29.20;;;4.70;99.90;;;;;;5024144;28;20017;-78
2020/12/20 03:53:46;;;;;;;59.15;28.92;;;4.70;99.90;;;;;;5025299;28;20052;-77
2020/12/20 03:56:12;;;;;;;56.70;29.17;;;4.60;99.90;;;;;;5017292;28;20443;-78
2020/12/20 03:58:37;;;;;;;57.05;29.00;;;4.70;99.90;;;;;;5034432;28;20120;-77
2020/12/20 04:01:03;;;;;;;53.83;28.85;;;4.70;99.90;;;;;;5016280;28;20119;-77
2020/12/20 04:03:29;;;;;;;56.47;27.23;;;4.70;99.90;;;;;;5034528;28;20025;-77
2020/12/20 04:05:54;;;;;;;52.60;27.48;;;4.70;99.90;;;;;;5034319;28;20695;-78
2020/12/20 04:08:20;;;;;;;53.88;26.65;;;4.60;99.90;;;;;;5000618;28;20026;-77
2020/12/20 04:10:46;;;;;;;54.17;26.63;;;4.60;99.90;;;;;;5004526;28;20029;-77
2020/12/20 04:13:11;;;;;;;65.60;27.80;;;4.70;99.90;;;;;;5010937;28;20030;-77
2020/12/20 04:15:37;;;;;;;54.88;28.80;;;4.60;99.90;;;;;;5020110;28;20034;-76
2020/12/20 04:18:03;;;;;;;57.42;29.58;;;4.60;99.90;;;;;;5024981;28;20032;-77
2020/12/20 04:20:29;;;;;;;53.55;27.90;;;4.70;99.90;;;;;;5016564;28;20025;-78
2020/12/20 04:22:54;;;;;;;56.15;27.70;;;4.70;99.90;;;;;;5033362;28;20025;-78
2020/12/20 04:25:20;;;;;;;53.28;28.52;;;4.70;99.90;;;;;;5019284;28;20069;-77
2020/12/20 04:27:48;;;;;;;56.28;30.00;;;4.70;99.90;;;;;;5029641;28;20171;-77
2020/12/20 04:30:14;;;;;;;47.92;25.90;;;4.80;99.90;;;;;;5030857;28;20452;-77
2020/12/20 04:32:40;;;;;;;51.78;27.05;;;4.80;99.90;;;;;;5034443;28;20072;-77
2020/12/20 04:35:06;;;;;;;50.00;25.42;;;4.70;99.90;;;;;;5033561;28;20025;-77
2020/12/20 04:37:32;;;;;;;62.30;28.85;;;4.80;99.90;;;;;;5034222;28;20022;-76
2020/12/20 04:39:58;;;;;;;56.97;28.05;;;4.80;99.90;;;;;;5034009;28;20025;-76
2020/12/20 04:42:26;;;;;;;56.78;26.63;;;4.90;99.90;;;;;;4997775;28;20357;-76
2020/12/20 04:44:52;;;;;;;59.75;28.77;;;4.90;99.90;;;;;;5029306;28;20033;-76
2020/12/20 04:47:19;;;;;;;53.83;26.70;;;4.80;99.90;;;;;;5034280;28;20029;-77
2020/12/20 04:49:46;;;;;;;55.83;28.98;;;4.80;99.90;;;;;;5034090;28;20467;-77
2020/12/20 04:52:12;;;;;;;59.05;28.23;;;4.80;99.90;;;;;;5034745;28;20096;-77
2020/12/20 04:54:40;;;;;;;57.25;30.10;;;4.80;99.90;;;;;;5000897;28;20097;-77
2020/12/20 04:57:09;;;;;;;52.58;24.50;;;4.80;99.90;;;;;;5025220;28;20032;-78
2020/12/20 04:59:36;;;;;;;52.08;24.30;;;4.80;99.90;;;;;;5013700;28;20046;-76
2020/12/20 05:02:02;;;;;;;47.70;24.27;;;4.90;99.90;;;;;;5014162;28;20087;-76
2020/12/20 05:04:29;;;;;;;41.75;22.90;;;4.80;99.90;;;;;;5013206;28;20372;-76
2020/12/20 05:06:56;;;;;;;52.75;25.17;;;4.70;99.90;;;;;;5014728;28;20096;-76
2020/12/20 05:09:21;;;;;;;46.60;24.38;;;4.70;99.90;;;;;;5028841;28;20037;-76
2020/12/20 05:11:47;;;;;;;43.58;23.52;;;4.70;99.90;;;;;;5018782;28;20392;-76
2020/12/20 05:14:14;;;;;;;38.17;21.38;;;4.70;99.90;;;;;;5027102;28;20026;-76
2020/12/20 05:16:41;;;;;;;41.05;20.77;;;4.70;99.90;;;;;;5013006;28;20025;-76
2020/12/20 05:19:15;;;;;;;39.40;21.13;;;4.70;99.90;;;;;;5016565;28;20033;-76
2020/12/20 05:21:43;;;;;;;38.83;22.17;;;4.70;99.90;;;;;;5032325;28;20428;-76
2020/12/20 05:24:25;;;;;;;38.65;20.40;;;4.70;99.90;;;;;;5019281;28;20029;-76
2020/12/20 05:26:51;;;;;;;33.03;20.25;;;4.80;99.90;;;;;;5021388;28;20464;-76
2020/12/20 05:29:25;;;;;;;32.13;17.60;;;4.80;99.90;;;;;;5033380;28;20040;-76
2020/12/20 05:31:50;;;;;;;32.70;18.27;;;4.80;99.90;;;;;;5032452;28;20026;-75
2020/12/20 05:34:20;;;;;;;34.30;18.67;;;4.80;99.90;;;;;;5032549;28;20032;-76
2020/12/20 05:36:46;;;;;;;34.33;19.15;;;4.80;99.90;;;;;;5032533;28;20109;-75
2020/12/20 05:39:17;;;;;;;34.55;16.05;;;4.80;99.90;;;;;;5015993;28;20097;-76
2020/12/20 05:41:44;;;;;;;29.85;18.25;;;4.80;99.90;;;;;;5017767;28;20025;-76
2020/12/20 05:44:15;;;;;;;26.38;15.50;;;4.80;99.90;;;;;;5027143;28;20526;-76
2020/12/20 05:46:43;;;;;;;27.45;16.83;;;4.80;99.90;;;;;;5027144;28;20384;-75
2020/12/20 05:49:23;;;;;;;27.02;14.35;;;4.80;99.90;;;;;;5029321;28;20041;-76
2020/12/20 05:52:04;;;;;;;25.40;14.45;;;4.70;99.90;;;;;;5027488;28;20084;-76
2020/12/20 05:54:37;;;;;;;29.70;17.00;;;4.70;99.90;;;;;;5016809;28;20160;-76
2020/12/20 05:57:10;;;;;;;29.60;15.67;;;4.60;99.90;;;;;;5013633;28;20030;-77
2020/12/20 05:59:36;;;;;;;28.75;14.88;;;4.60;99.90;;;;;;5012810;28;20256;-75
2020/12/20 06:02:07;;;;;;;24.23;14.95;;;4.60;99.90;;;;;;5013686;28;20137;-75
2020/12/20 06:04:34;;;;;;;24.35;15.10;;;4.70;99.90;;;;;;5013085;28;20033;-75
2020/12/20 06:07:00;;;;;;;25.10;14.35;;;4.60;99.90;;;;;;5012917;28;20423;-75
2020/12/20 06:09:28;;;;;;;22.95;14.30;;;4.60;99.90;;;;;;5013032;28;20037;-75
2020/12/20 06:11:55;;;;;;;24.52;14.50;;;4.60;99.90;;;;;;5012421;28;20037;-74
2020/12/20 06:14:27;;;;;;;22.23;12.95;;;4.60;99.90;;;;;;5013533;28;20022;-75
2020/12/20 06:17:08;;;;;;;28.80;17.00;;;4.60;99.90;;;;;;4995327;28;20053;-75
2020/12/20 06:19:51;;;;;;;22.88;15.25;;;4.60;99.90;;;;;;5013325;28;20071;-75
2020/12/20 06:22:28;;;;;;;27.45;15.77;;;4.60;99.90;;;;;;5013270;28;20030;-76
2020/12/20 06:24:57;;;;;;;26.80;14.88;;;4.60;99.90;;;;;;4995042;28;20037;-76
2020/12/20 06:27:24;;;;;;;30.88;16.73;;;4.60;99.90;;;;;;5012481;28;20026;-77
2020/12/20 06:29:55;;;;;;;30.60;17.08;;;4.60;99.90;;;;;;5013146;28;20029;-75
2020/12/20 06:32:38;;;;;;;26.70;15.48;;;4.60;99.90;;;;;;5013244;28;20026;-74
2020/12/20 06:35:26;;;;;;;30.17;16.88;;;4.60;99.90;;;;;;5012615;28;20022;-74
2020/12/20 06:37:52;;;;;;;32.33;17.50;;;4.50;99.90;;;;;;5012905;28;20075;-74
2020/12/20 06:40:42;;;;;;;35.38;18.85;;;4.50;99.90;;;;;;5012660;28;20038;-74
2020/12/20 06:43:09;;;;;;;33.15;18.60;;;4.50;99.90;;;;;;5002964;28;20037;-74
2020/12/20 06:45:43;;;;;;;38.33;19.08;;;4.50;99.90;;;;;;5026510;28;20037;-75
2020/12/20 06:48:09;;;;;;;31.92;18.95;;;4.50;99.90;;;;;;5015811;28;20540;-74
2020/12/20 06:50:44;;;;;;;34.85;18.20;;;4.50;99.90;;;;;;5015970;28;20062;-74
2020/12/20 06:53:12;;;;;;;39.40;17.58;;;4.50;99.90;;;;;;5029881;28;20076;-74
2020/12/20 06:55:38;;;;;;;30.15;18.98;;;4.40;99.90;;;;;;5015555;28;20468;-74
2020/12/20 06:58:06;;;;;;;33.58;18.67;;;4.40;99.90;;;;;;5004925;28;20380;-74
2020/12/20 07:00:51;;;;;;;31.65;17.70;;;4.50;99.90;;;;;;5030314;28;20037;-74
2020/12/20 07:03:30;;;;;;;37.40;19.60;;;4.50;99.90;;;;;;5031138;28;20041;-74
2020/12/20 07:06:08;;;;;;;35.42;18.80;;;4.50;99.90;;;;;;5027846;28;20034;-74
2020/12/20 07:08:35;;;;;;;38.22;18.67;;;4.50;99.90;;;;;;5026259;28;20029;-75
2020/12/20 07:11:21;;;;;;;38.42;20.20;;;4.50;99.90;;;;;;5035544;28;20121;-74
2020/12/20 07:13:48;;;;;;;38.47;22.58;;;4.60;99.90;;;;;;5035838;28;20037;-75
2020/12/20 07:16:17;;;;;;;36.17;21.05;;;4.50;99.90;;;;;;5034978;28;20029;-75
2020/12/20 07:18:55;;;;;;;36.85;22.02;;;4.60;99.90;;;;;;5027841;28;20060;-75
2020/12/20 07:21:24;;;;;;;41.78;22.73;;;4.60;99.90;;;;;;5040666;28;20041;-74
2020/12/20 07:23:54;;;;;;;51.92;27.33;;;4.60;99.90;;;;;;5049985;28;20032;-78
2020/12/20 07:26:23;;;;;;;45.50;23.40;;;4.60;99.90;;;;;;5028273;28;20044;-77
2020/12/20 07:28:49;;;;;;;43.53;23.02;;;4.60;99.90;;;;;;5029738;28;20037;-77
2020/12/20 07:31:17;;;;;;;48.70;28.13;;;4.60;99.90;;;;;;5027607;28;20025;-76
2020/12/20 07:33:43;;;;;;;48.85;25.15;;;4.70;99.90;;;;;;5033124;28;20025;-79
2020/12/20 07:36:09;;;;;;;45.28;25.15;;;4.70;99.90;;;;;;4998663;28;20061;-79
2020/12/20 07:38:35;;;;;;;43.05;23.95;;;4.60;99.90;;;;;;4998432;28;20452;-79
2020/12/20 07:41:09;;;;;;;62.42;29.52;;;4.60;99.90;;;;;;4998327;28;20026;-79
2020/12/20 07:43:34;;;;;;;52.85;27.42;;;4.70;99.90;;;;;;5007040;28;20026;-78
2020/12/20 07:46:02;;;;;;;46.40;23.90;;;4.70;99.90;;;;;;4993848;28;20048;-79
2020/12/20 07:48:29;;;;;;;58.92;29.90;;;4.70;99.90;;;;;;5002977;28;20026;-76
2020/12/20 07:51:20;;;;;;;76.25;43.28;;;4.80;99.90;;;;;;5020309;28;20459;-78
2020/12/20 07:53:55;;;;;;;71.65;38.90;;;5.00;99.90;;;;;;5024557;28;20491;-76
2020/12/20 07:56:31;;;;;;;53.92;29.60;;;5.10;99.90;;;;;;5000465;28;20036;-75
2020/12/20 07:59:09;;;;;;;55.47;29.13;;;5.20;99.90;;;;;;5014591;28;20103;-76
2020/12/20 08:01:36;;;;;;;65.20;37.15;;;5.10;99.90;;;;;;4998523;28;20058;-77
2020/12/20 08:04:05;;;;;;;46.85;24.58;;;5.20;99.90;;;;;;5025276;28;20100;-76
2020/12/20 08:06:33;;;;;;;38.58;22.73;;;5.20;99.90;;;;;;5034904;28;20038;-77
2020/12/20 08:09:13;;;;;;;47.47;24.85;;;5.10;99.90;;;;;;5026081;28;20018;-77
2020/12/20 08:11:40;;;;;;;51.40;24.67;;;5.10;99.90;;;;;;5032982;28;20047;-76
2020/12/20 08:14:08;;;;;;;41.25;22.13;;;5.10;99.90;;;;;;5021773;28;20034;-79
2020/12/20 08:16:51;;;;;;;39.80;21.67;;;5.10;99.90;;;;;;5025112;28;20047;-80
2020/12/20 08:19:24;;;;;;;37.97;22.23;;;5.10;99.90;;;;;;5028072;28;20104;-78
2020/12/20 08:22:03;;;;;;;30.85;19.00;;;5.10;99.90;;;;;;5022087;28;20025;-76
2020/12/20 08:24:37;;;;;;;37.33;19.55;;;5.00;99.90;;;;;;5028837;28;20065;-78
2020/12/20 08:27:18;;;;;;;29.15;17.33;;;5.00;99.90;;;;;;5028654;28;20028;-76
2020/12/20 08:29:45;;;;;;;33.20;18.33;;;5.00;99.90;;;;;;5021348;28;20033;-77
2020/12/20 08:32:16;;;;;;;38.22;20.60;;;5.00;99.90;;;;;;5012825;28;20037;-77
2020/12/20 08:34:43;;;;;;;40.33;21.23;;;5.00;99.90;;;;;;5014720;28;20025;-77
2020/12/20 08:37:11;;;;;;;41.10;20.08;;;4.90;99.90;;;;;;5031745;28;20021;-78
2020/12/20 08:39:37;;;;;;;39.78;20.50;;;4.90;99.90;;;;;;5025666;28;20044;-78
2020/12/20 08:42:11;;;;;;;44.45;24.65;;;4.90;99.90;;;;;;5028342;28;20029;-76
2020/12/20 08:44:39;;;;;;;46.15;22.48;;;5.00;99.90;;;;;;4963587;28;20051;-77
2020/12/20 08:47:07;;;;;;;45.75;22.90;;;5.00;99.90;;;;;;4957516;28;20206;-76
2020/12/20 08:49:32;;;;;;;60.80;36.65;;;4.90;99.90;;;;;;4962395;28;20041;-78
2020/12/20 08:52:09;;;;;;;141.30;85.07;;;5.00;99.90;;;;;;4964700;28;20027;-78
2020/12/20 08:54:35;;;;;;;96.93;51.25;;;5.20;99.90;;;;;;4959977;28;20058;-79
2020/12/20 08:57:10;;;;;;;57.22;29.70;;;5.20;99.90;;;;;;4972446;28;20142;-80
2020/12/20 08:59:45;;;;;;;47.42;27.15;;;5.10;99.90;;;;;;4960931;28;20032;-79
2020/12/20 09:02:18;;;;;;;45.88;26.15;;;5.20;99.90;;;;;;4957537;28;20055;-79
2020/12/20 09:05:01;;;;;;;56.60;31.10;;;5.30;99.90;;;;;;4967853;28;20045;-78
2020/12/20 09:07:36;;;;;;;46.25;27.58;;;5.30;99.90;;;;;;4951282;28;20042;-80
2020/12/20 09:10:05;;;;;;;57.58;33.03;;;5.30;99.90;;;;;;4962032;28;20050;-76
2020/12/20 09:12:31;;;;;;;42.97;22.48;;;5.30;99.90;;;;;;4960381;28;20039;-78
2020/12/20 09:15:07;;;;;;;53.30;25.67;;;5.20;99.90;;;;;;4955518;28;20048;-77
2020/12/20 09:17:39;;;;;;;54.80;27.92;;;5.20;99.90;;;;;;5027997;28;20483;-83
2020/12/20 09:20:17;;;;;;;49.03;22.58;;;5.20;99.90;;;;;;4997862;28;20033;-79
2020/12/20 09:22:47;;;;;;;36.75;22.27;;;5.10;99.90;;;;;;5016429;28;20018;-75
2020/12/20 09:25:15;;;;;;;42.83;21.35;;;5.10;99.90;;;;;;5017578;28;20041;-75
2020/12/20 09:27:58;;;;;;;43.85;21.77;;;5.10;99.90;;;;;;5024057;28;20172;-78
2020/12/20 09:30:47;;;;;;;44.03;22.75;;;5.00;99.90;;;;;;5017359;28;20021;-76
2020/12/20 09:33:38;;;;;;;38.83;22.30;;;5.00;99.90;;;;;;5019620;28;20511;-75
2020/12/20 09:36:18;;;;;;;47.67;25.25;;;5.00;99.90;;;;;;5017397;28;20065;-76
2020/12/20 09:38:55;;;;;;;43.80;22.33;;;5.00;99.90;;;;;;5000905;28;20493;-80
2020/12/20 09:41:32;;;;;;;46.03;23.65;;;5.10;99.90;;;;;;5005590;28;20033;-82
2020/12/20 09:44:01;;;;;;;53.88;27.58;;;5.00;99.90;;;;;;5020249;28;20021;-80
2020/12/20 09:46:38;;;;;;;50.70;25.88;;;5.10;99.90;;;;;;5009492;28;20042;-81
2020/12/20 09:49:07;;;;;;;46.38;26.42;;;5.10;99.90;;;;;;5015455;28;20053;-83
2020/12/20 09:51:33;;;;;;;53.65;26.02;;;5.10;99.90;;;;;;5011531;28;20415;-75
2020/12/20 09:53:59;;;;;;;47.28;22.13;;;5.00;99.90;;;;;;5019909;28;20022;-76
2020/12/20 09:56:25;;;;;;;59.92;26.88;;;5.00;99.90;;;;;;5017779;28;20022;-76
2020/12/20 09:58:51;;;;;;;39.20;21.67;;;5.00;99.90;;;;;;5017964;28;20033;-76
2020/12/20 10:01:21;;;;;;;59.85;27.20;;;5.00;99.90;;;;;;5026894;28;20377;-78
2020/12/20 10:03:47;;;;;;;55.45;29.40;;;5.00;99.90;;;;;;5027287;28;20026;-77
2020/12/20 10:06:17;;;;;;;60.85;29.55;;;5.00;99.90;;;;;;5026615;28;20036;-78
2020/12/20 10:08:43;;;;;;;43.50;22.48;;;5.10;99.90;;;;;;5027518;28;20476;-78
2020/12/20 10:11:09;;;;;;;46.38;23.67;;;5.00;99.90;;;;;;5000114;28;20671;-79
2020/12/20 10:13:35;;;;;;;51.00;26.38;;;5.00;99.90;;;;;;4988656;28;20041;-79
2020/12/20 10:16:02;;;;;;;48.55;24.45;;;5.10;99.90;;;;;;5015585;28;20030;-77
2020/12/20 10:18:27;;;;;;;45.45;22.70;;;5.10;99.90;;;;;;5018583;28;20026;-78
2020/12/20 10:20:53;;;;;;;39.55;24.20;;;5.10;99.90;;;;;;5017268;28;20111;-78
2020/12/20 10:23:19;;;;;;;43.40;22.60;;;5.20;99.90;;;;;;5014546;28;20383;-79
2020/12/20 10:25:52;;;;;;;30.75;19.30;;;5.20;99.90;;;;;;5029714;28;20037;-82
2020/12/20 10:28:28;;;;;;;36.58;20.30;;;5.20;99.90;;;;;;5008480;28;20085;-83
2020/12/20 10:30:54;;;;;;;33.00;16.92;;;5.10;99.90;;;;;;5023122;28;20112;-78
2020/12/20 10:33:20;;;;;;;32.88;17.80;;;5.10;99.90;;;;;;5035374;28;20095;-77
2020/12/20 10:35:45;;;;;;;39.78;22.25;;;5.10;99.90;;;;;;5020048;28;20112;-76
2020/12/20 10:38:11;;;;;;;40.00;20.83;;;5.10;99.90;;;;;;5029713;28;20018;-78
2020/12/20 10:40:37;;;;;;;43.10;21.52;;;5.20;99.90;;;;;;5021644;28;20032;-78
2020/12/20 10:43:03;;;;;;;36.10;20.35;;;5.20;99.90;;;;;;5029614;28;20029;-78
2020/12/20 10:45:38;;;;;;;42.45;25.23;;;5.30;99.90;;;;;;5032340;28;20387;-81
2020/12/20 10:48:04;;;;;;;30.75;19.88;;;5.30;99.90;;;;;;5009784;28;20489;-79
2020/12/20 10:50:31;;;;;;;35.50;20.67;;;5.30;99.90;;;;;;5032415;28;20021;-82
2020/12/20 10:52:57;;;;;;;35.05;19.60;;;5.30;99.90;;;;;;5003827;28;20026;-79
2020/12/20 10:55:22;;;;;;;42.38;22.55;;;5.30;99.90;;;;;;5024021;28;20018;-79
2020/12/20 10:57:50;;;;;;;39.20;20.45;;;5.30;99.90;;;;;;5022100;28;20029;-80
2020/12/20 11:00:15;;;;;;;31.25;18.58;;;5.30;99.90;;;;;;5021800;28;20026;-79
2020/12/20 11:02:41;;;;;;;32.50;18.38;;;5.30;99.90;;;;;;5019872;28;20030;-79
2020/12/20 11:05:07;;;;;;;43.17;19.80;;;5.30;99.90;;;;;;5035554;28;20484;-78
2020/12/20 11:07:33;;;;;;;32.65;18.10;;;5.30;99.90;;;;;;5005977;28;20113;-77
2020/12/20 11:09:58;;;;;;;36.63;20.42;;;5.30;99.90;;;;;;5005329;28;20029;-78
2020/12/20 11:12:24;;;;;;;39.50;20.77;;;5.30;99.90;;;;;;5032337;28;20021;-78
2020/12/20 11:14:50;;;;;;;32.70;19.40;;;5.30;99.90;;;;;;5035389;28;20533;-78
2020/12/20 11:17:16;;;;;;;27.80;15.68;;;5.30;99.90;;;;;;5035730;28;20482;-77
2020/12/20 11:19:41;;;;;;;26.77;15.52;;;5.30;99.90;;;;;;5032792;28;20100;-78
2020/12/20 11:22:07;;;;;;;33.03;19.05;;;5.40;99.90;;;;;;5031811;28;20071;-78
2020/12/20 11:24:33;;;;;;;32.40;17.05;;;5.40;99.90;;;;;;5035553;28;20026;-76
2020/12/20 11:26:59;;;;;;;27.98;17.10;;;5.40;99.90;;;;;;4999331;28;20034;-77
2020/12/20 11:29:24;;;;;;;27.05;17.70;;;5.50;99.90;;;;;;5018437;28;20021;-78
2020/12/20 11:31:50;;;;;;;25.15;15.25;;;5.40;99.90;;;;;;5027826;28;20029;-80
2020/12/20 11:34:17;;;;;;;36.65;18.98;;;5.50;99.90;;;;;;5017066;28;20033;-78
2020/12/20 11:36:43;;;;;;;30.13;17.08;;;5.50;99.90;;;;;;5035253;28;20091;-76
2020/12/20 11:39:12;;;;;;;24.65;16.30;;;5.50;99.90;;;;;;5029975;28;20483;-77
2020/12/20 11:41:41;;;;;;;28.63;16.25;;;5.60;99.90;;;;;;5024645;28;20041;-79
2020/12/20 11:44:08;;;;;;;26.13;14.88;;;5.60;99.90;;;;;;5003519;28;20112;-76
2020/12/20 11:46:34;;;;;;;34.90;19.27;;;5.60;99.90;;;;;;5035493;28;20025;-80
2020/12/20 11:49:01;;;;;;;23.60;13.88;;;5.60;99.90;;;;;;5029866;28;20042;-83
2020/12/20 11:51:27;;;;;;;28.10;15.60;;;5.60;99.90;;;;;;5028511;28;20022;-80
2020/12/20 11:53:59;;;;;;;28.65;17.30;;;5.60;99.90;;;;;;5013243;28;20029;-78
2020/12/20 11:56:25;;;;;;;35.03;18.35;;;5.60;99.90;;;;;;5011764;28;20387;-81
2020/12/20 11:58:51;;;;;;;30.63;16.70;;;5.60;99.90;;;;;;5003072;28;20041;-78
2020/12/20 12:01:27;;;;;;;27.98;15.57;;;5.50;99.90;;;;;;5027903;28;20404;-82
2020/12/20 12:04:01;;;;;;;36.50;17.63;;;5.60;99.90;;;;;;5005269;28;20033;-85
2020/12/20 12:06:27;;;;;;;23.95;14.05;;;5.70;99.90;;;;;;5019977;28;20124;-81
2020/12/20 12:08:53;;;;;;;30.95;17.30;;;5.80;99.90;;;;;;5005786;28;20041;-81
2020/12/20 12:11:20;;;;;;;29.45;15.85;;;5.90;99.90;;;;;;5012796;28;20033;-83
2020/12/20 12:13:47;;;;;;;24.88;14.65;;;6.00;99.90;;;;;;5026700;28;20030;-81
2020/12/20 12:16:15;;;;;;;24.25;15.18;;;6.00;99.90;;;;;;5011507;28;20132;-79
2020/12/20 12:18:50;;;;;;;20.83;14.73;;;6.10;99.90;;;;;;5032512;28;20468;-82
2020/12/20 12:21:33;;;;;;;26.70;15.32;;;6.00;99.90;;;;;;5030300;28;20056;-87
2020/12/20 12:24:02;;;;;;;23.65;14.75;;;6.10;99.90;;;;;;5008852;28;20470;-83
2020/12/20 12:26:27;;;;;;;27.10;15.27;;;6.10;99.90;;;;;;5023971;28;20107;-84
2020/12/20 12:28:54;;;;;;;30.77;16.58;;;6.20;99.90;;;;;;5023799;28;20018;-80
2020/12/20 12:31:19;;;;;;;26.83;16.10;;;6.20;99.90;;;;;;5011404;28;20399;-81
2020/12/20 12:33:51;;;;;;;34.67;21.20;;;6.10;99.90;;;;;;5025670;28;20026;-81
2020/12/20 12:36:17;;;;;;;32.10;19.25;;;6.10;99.90;;;;;;5018837;28;20025;-77
2020/12/20 12:38:42;;;;;;;29.20;17.33;;;6.10;99.90;;;;;;5022641;28;20032;-82
2020/12/20 12:41:08;;;;;;;32.75;18.20;;;6.10;99.90;;;;;;5026835;28;20430;-82
2020/12/20 12:43:34;;;;;;;32.67;17.33;;;6.10;99.90;;;;;;5019480;28;20106;-81